createdAt,value
2024-05-09T00:00:35.582Z,10.49
2024-05-09T00:03:10.754Z,10.35
2024-05-09T00:05:40.864Z,10.44
2024-05-09T00:08:08.856Z,10.28
2024-05-09T00:10:38.034Z,10.29
2024-05-09T00:13:07.064Z,10.14
2024-05-09T00:15:34.661Z,10.04
2024-05-09T00:18:02.434Z,9.86
2024-05-09T00:20:37.362Z,10.05
2024-05-09T00:23:07.685Z,10.19
2024-05-09T00:25:34.841Z,9.98
2024-05-09T00:28:01.661Z,9.82
2024-05-09T00:30:34.260Z,9.65
2024-05-09T00:33:04.250Z,9.52
2024-05-09T00:35:31.715Z,9.44
2024-05-09T00:37:58.399Z,9.64
2024-05-09T00:40:35.321Z,9.62
2024-05-09T00:43:06.500Z,9.44
2024-05-09T00:45:34.336Z,9.58
2024-05-09T00:48:07.463Z,9.61
2024-05-09T00:50:38.043Z,9.36
2024-05-09T00:53:06.643Z,9.20
2024-05-09T00:55:35.106Z,9.31
2024-05-09T00:58:02.463Z,9.18
2024-05-09T01:00:37.766Z,8.98
2024-05-09T01:03:06.997Z,8.82
2024-05-09T01:05:34.897Z,8.78
2024-05-09T01:08:02.998Z,8.79
2024-05-09T01:10:34.473Z,9.10
2024-05-09T01:13:03.690Z,8.94
2024-05-09T01:15:30.388Z,9.10
2024-05-09T01:17:58.100Z,9.00
2024-05-09T01:20:36.518Z,8.86
2024-05-09T01:23:09.122Z,8.66
2024-05-09T01:25:35.982Z,8.53
2024-05-09T01:28:02.634Z,8.38
2024-05-09T01:30:34.670Z,8.53
2024-05-09T01:33:04.188Z,8.63
2024-05-09T01:35:31.351Z,8.66
2024-05-09T01:37:58.048Z,8.58
2024-05-09T01:40:33.568Z,8.39
2024-05-09T01:43:04.784Z,8.21
2024-05-09T01:45:31.624Z,8.11
2024-05-09T01:47:58.680Z,8.00
2024-05-09T01:50:36.714Z,7.82
2024-05-09T01:53:07.040Z,7.77
2024-05-09T01:55:33.684Z,7.71
2024-05-09T01:58:00.455Z,7.69
2024-05-09T02:00:37.689Z,7.77
2024-05-09T02:03:10.180Z,7.89
2024-05-09T02:05:37.774Z,7.77
2024-05-09T02:08:05.500Z,7.79
2024-05-09T02:10:33.260Z,7.88
2024-05-09T02:13:00.478Z,7.83
2024-05-09T02:15:27.034Z,7.65
2024-05-09T02:17:53.751Z,7.47
2024-05-09T02:20:30.118Z,7.57
2024-05-09T02:23:03.851Z,7.85
2024-05-09T02:25:31.013Z,7.92
2024-05-09T02:27:57.555Z,7.93
2024-05-09T02:30:31.086Z,7.90
2024-05-09T02:33:05.849Z,7.69
2024-05-09T02:35:32.894Z,7.67
2024-05-09T02:37:59.887Z,7.88
2024-05-09T02:40:35.494Z,7.90
2024-05-09T02:43:05.566Z,7.63
2024-05-09T02:45:32.403Z,7.38
2024-05-09T02:47:59.298Z,7.25
2024-05-09T02:50:34.402Z,7.18
2024-05-09T02:53:05.604Z,7.04
2024-05-09T02:55:32.559Z,7.20
2024-05-09T02:57:59.305Z,7.39
2024-05-09T03:00:34.686Z,7.32
2024-05-09T03:03:08.523Z,7.44
2024-05-09T03:05:36.565Z,7.38
2024-05-09T03:08:03.620Z,7.55
2024-05-09T03:10:35.663Z,7.54
2024-05-09T03:13:14.154Z,7.71
2024-05-09T03:15:42.548Z,7.51
2024-05-09T03:18:09.681Z,7.28
2024-05-09T03:20:37.279Z,7.10
2024-05-09T03:23:05.397Z,6.98
2024-05-09T03:25:32.406Z,6.93
2024-05-09T03:27:59.488Z,6.80
2024-05-09T03:30:38.117Z,6.66
2024-05-09T03:33:13.540Z,6.60
2024-05-09T03:35:41.193Z,6.47
2024-05-09T03:38:07.863Z,6.56
2024-05-09T03:40:34.486Z,6.93
2024-05-09T03:43:01.055Z,6.83
2024-05-09T03:45:27.606Z,6.76
2024-05-09T03:47:54.385Z,6.63
2024-05-09T03:50:26.469Z,6.48
2024-05-09T03:53:00.865Z,6.70
2024-05-09T03:55:27.919Z,6.95
2024-05-09T03:57:54.482Z,7.07
2024-05-09T04:00:30.560Z,7.13
2024-05-09T04:03:03.904Z,7.28
2024-05-09T04:05:31.228Z,7.33
2024-05-09T04:07:58.294Z,7.13
2024-05-09T04:10:32.385Z,6.94
2024-05-09T04:13:00.601Z,6.82
2024-05-09T04:15:27.225Z,6.82
2024-05-09T04:17:54.046Z,6.78
2024-05-09T04:20:32.826Z,6.71
2024-05-09T04:23:06.029Z,6.83
2024-05-09T04:25:32.746Z,6.86
2024-05-09T04:27:59.494Z,6.89
2024-05-09T04:30:34.844Z,6.96
2024-05-09T04:33:07.075Z,6.93
2024-05-09T04:35:35.249Z,6.99
2024-05-09T04:38:02.026Z,6.95
2024-05-09T04:40:33.808Z,7.08
2024-05-09T04:43:04.184Z,7.13
2024-05-09T04:45:30.871Z,7.22
2024-05-09T04:47:57.849Z,7.22
2024-05-09T04:50:32.717Z,7.33
2024-05-09T04:53:03.666Z,7.40
2024-05-09T04:55:30.479Z,7.41
2024-05-09T04:57:57.068Z,7.48
2024-05-09T05:00:32.403Z,7.58
2024-05-09T05:03:08.463Z,7.63
2024-05-09T05:05:40.309Z,7.72
2024-05-09T05:08:18.818Z,7.90
2024-05-09T05:10:47.161Z,7.96
2024-05-09T05:13:23.700Z,8.03
2024-05-09T05:15:58.301Z,8.08
2024-05-09T05:18:28.801Z,8.17
2024-05-09T05:20:56.688Z,8.22
2024-05-09T05:23:23.943Z,8.26
2024-05-09T05:25:53.215Z,8.25
2024-05-09T05:28:20.765Z,8.28
2024-05-09T05:30:47.530Z,8.33
2024-05-09T05:33:16.087Z,8.41
2024-05-09T05:35:42.951Z,8.57
2024-05-09T05:38:10.614Z,8.65
2024-05-09T05:40:38.896Z,8.76
2024-05-09T05:43:08.691Z,8.85
2024-05-09T05:45:35.939Z,8.90
2024-05-09T05:48:05.775Z,9.10
2024-05-09T05:50:36.510Z,9.28
2024-05-09T05:53:10.013Z,9.48
2024-05-09T05:55:39.438Z,9.63
2024-05-09T05:58:09.511Z,9.78
2024-05-09T06:00:39.046Z,9.90
2024-05-09T06:03:10.478Z,10.07
2024-05-09T06:05:40.331Z,10.12
2024-05-09T06:08:07.827Z,10.24
2024-05-09T06:10:38.612Z,10.31
2024-05-09T06:13:08.028Z,10.42
2024-05-09T06:15:34.634Z,10.52
2024-05-09T06:18:01.823Z,10.50
2024-05-09T06:20:35.548Z,10.62
2024-05-09T06:23:08.052Z,10.61
2024-05-09T06:25:36.171Z,10.77
2024-05-09T06:28:03.065Z,10.79
2024-05-09T06:30:37.443Z,11.01
2024-05-09T06:33:08.971Z,11.03
2024-05-09T06:35:36.647Z,11.10
2024-05-09T06:38:03.792Z,11.27
2024-05-09T06:40:37.156Z,11.42
2024-05-09T06:43:10.976Z,11.55
2024-05-09T06:45:39.655Z,11.65
2024-05-09T06:48:07.365Z,11.84
2024-05-09T06:50:37.863Z,12.04
2024-05-09T06:53:06.007Z,12.26
2024-05-09T06:55:32.689Z,12.49
2024-05-09T06:57:59.245Z,12.61
2024-05-09T07:00:30.659Z,12.78
2024-05-09T07:03:08.958Z,12.90
2024-05-09T07:05:35.837Z,13.01
2024-05-09T07:08:03.024Z,13.25
2024-05-09T07:10:34.796Z,13.32
2024-05-09T07:13:02.779Z,13.52
2024-05-09T07:15:29.294Z,13.77
2024-05-09T07:17:56.085Z,13.82
2024-05-09T07:20:31.866Z,13.82
2024-05-09T07:23:02.569Z,13.74
2024-05-09T07:25:29.509Z,13.71
2024-05-09T07:27:56.165Z,13.80
2024-05-09T07:30:27.771Z,13.74
2024-05-09T07:33:00.403Z,13.69
2024-05-09T07:35:27.726Z,13.71
2024-05-09T07:37:54.764Z,13.92
2024-05-09T07:40:31.831Z,13.91
2024-05-09T07:43:07.325Z,14.13
2024-05-09T07:52:23.662Z,14.76
2024-05-09T07:53:38.710Z,15.01
2024-05-09T07:56:07.929Z,15.21
2024-05-09T07:58:35.651Z,15.04
2024-05-09T08:01:05.466Z,15.30
2024-05-09T08:03:32.424Z,15.23
2024-05-09T08:05:59.138Z,15.31
2024-05-09T08:08:26.632Z,15.31
2024-05-09T08:10:53.424Z,15.77
2024-05-09T08:13:20.292Z,15.92
2024-05-09T08:15:46.980Z,15.85
2024-05-09T08:18:13.794Z,15.88
2024-05-09T08:20:41.370Z,15.76
2024-05-09T08:23:08.091Z,15.93
2024-05-09T08:25:34.657Z,16.18
2024-05-09T08:28:01.385Z,16.27
2024-05-09T08:30:33.748Z,16.33
2024-05-09T08:33:04.972Z,16.62
2024-05-09T08:35:32.508Z,16.51
2024-05-09T08:37:59.297Z,16.60
2024-05-09T08:40:33.421Z,16.61
2024-05-09T08:43:03.457Z,16.88
2024-05-09T08:45:31.331Z,17.07
2024-05-09T08:48:01.357Z,16.77
2024-05-09T08:50:36.090Z,17.25
2024-05-09T08:53:05.706Z,17.03
2024-05-09T08:55:32.600Z,17.22
2024-05-09T08:58:01.193Z,17.39
2024-05-09T09:00:35.883Z,17.54
2024-05-09T09:03:07.640Z,17.57
2024-05-09T09:05:39.076Z,17.60
2024-05-09T09:08:08.065Z,17.46
2024-05-09T09:10:35.242Z,17.80
2024-05-09T09:13:04.453Z,17.70
2024-05-09T09:15:31.686Z,17.73
2024-05-09T09:18:01.334Z,18.01
2024-05-09T09:20:35.837Z,18.37
2024-05-09T09:23:04.027Z,18.86
2024-05-09T09:25:30.907Z,18.85
2024-05-09T09:28:00.537Z,18.97
2024-05-09T09:30:35.269Z,19.30
2024-05-09T09:33:08.665Z,19.24
2024-05-09T09:35:38.855Z,19.44
2024-05-09T09:38:07.779Z,19.23
2024-05-09T09:40:40.659Z,19.28
2024-05-09T09:43:14.957Z,18.84
2024-05-09T09:45:44.063Z,19.23
2024-05-09T09:48:14.631Z,18.84
2024-05-09T09:50:42.248Z,18.85
2024-05-09T09:53:10.283Z,18.73
2024-05-09T09:55:38.062Z,19.28
2024-05-09T09:58:06.440Z,19.22
2024-05-09T10:00:34.484Z,19.08
2024-05-09T10:03:01.818Z,19.28
2024-05-09T10:05:29.206Z,18.50
2024-05-09T10:07:57.418Z,18.86
2024-05-09T10:10:31.723Z,19.43
2024-05-09T10:13:00.746Z,19.68
2024-05-09T10:15:27.900Z,19.95
2024-05-09T10:17:54.805Z,19.36
2024-05-09T10:20:27.991Z,19.79
2024-05-09T10:22:57.621Z,19.84
2024-05-09T10:25:25.117Z,20.29
2024-05-09T10:27:55.638Z,20.64
2024-05-09T10:30:29.930Z,20.42
2024-05-09T10:33:02.640Z,20.10
2024-05-09T10:35:32.000Z,19.82
2024-05-09T10:38:06.323Z,20.07
2024-05-09T10:40:33.226Z,20.55
2024-05-09T10:43:03.316Z,20.72
2024-05-09T10:45:32.761Z,20.61
2024-05-09T10:47:59.721Z,20.39
2024-05-09T10:50:29.233Z,20.11
2024-05-09T10:53:00.520Z,20.09
2024-05-09T10:55:27.723Z,20.10
2024-05-09T10:57:54.434Z,19.44
2024-05-09T11:00:27.615Z,19.36
2024-05-09T11:03:00.082Z,20.04
2024-05-09T11:05:26.922Z,20.17
2024-05-09T11:07:53.712Z,21.02
2024-05-09T11:10:27.416Z,21.62
2024-05-09T11:12:58.597Z,21.12
2024-05-09T11:15:25.994Z,20.72
2024-05-09T11:17:52.749Z,19.76
2024-05-09T11:20:26.627Z,20.32
2024-05-09T11:22:57.699Z,21.46
2024-05-09T11:25:24.402Z,21.82
2024-05-09T11:27:51.182Z,22.02
2024-05-09T11:30:26.732Z,21.95
2024-05-09T11:32:58.823Z,22.58
2024-05-09T11:35:26.567Z,22.43
2024-05-09T11:37:53.207Z,21.94
2024-05-09T11:40:25.469Z,22.27
2024-05-09T11:42:55.257Z,23.19
2024-05-09T11:45:22.064Z,23.72
2024-05-09T11:47:49.381Z,22.36
2024-05-09T11:50:26.403Z,21.38
2024-05-09T11:52:56.450Z,21.16
2024-05-09T11:55:27.378Z,21.85
2024-05-09T11:57:55.505Z,22.28
2024-05-09T12:00:29.642Z,22.54
2024-05-09T12:03:05.167Z,23.06
2024-05-09T12:05:32.867Z,23.77
2024-05-09T12:08:00.032Z,23.41
2024-05-09T12:10:33.039Z,23.76
2024-05-09T12:13:02.860Z,22.98
2024-05-09T12:15:30.089Z,22.70
2024-05-09T12:17:59.074Z,22.80
2024-05-09T12:20:35.481Z,23.20
2024-05-09T12:23:05.545Z,24.07
2024-05-09T12:25:32.240Z,24.98
2024-05-09T12:27:58.977Z,25.19
2024-05-09T12:30:35.063Z,25.11
2024-05-09T12:33:05.677Z,25.08
2024-05-09T12:35:32.647Z,25.04
2024-05-09T12:37:59.194Z,25.28
2024-05-09T12:40:34.404Z,26.52
2024-05-09T12:43:04.613Z,26.53
2024-05-09T12:45:31.570Z,26.50
2024-05-09T12:47:58.472Z,26.30
2024-05-09T12:50:31.738Z,27.21
2024-05-09T12:53:00.484Z,26.73
2024-05-09T12:55:28.337Z,27.19
2024-05-09T12:57:57.270Z,27.91
2024-05-09T13:00:31.055Z,26.91
2024-05-09T13:03:00.959Z,27.50
2024-05-09T13:05:28.064Z,27.97
2024-05-09T13:07:56.714Z,28.57
2024-05-09T13:10:30.719Z,28.28
2024-05-09T13:12:59.756Z,27.78
2024-05-09T13:15:26.739Z,27.63
2024-05-09T13:17:53.451Z,27.19
2024-05-09T13:20:29.076Z,27.80
2024-05-09T13:23:02.056Z,27.05
2024-05-09T13:25:28.730Z,27.07
2024-05-09T13:27:56.427Z,28.17
2024-05-09T13:30:29.768Z,26.87
2024-05-09T13:33:05.546Z,27.09
2024-05-09T13:35:34.395Z,28.78
2024-05-09T13:38:02.154Z,28.57
2024-05-09T13:40:33.711Z,28.23
2024-05-09T13:43:03.336Z,28.10
2024-05-09T13:45:30.140Z,27.81
2024-05-09T13:47:57.171Z,26.46
2024-05-09T13:50:32.915Z,26.61
2024-05-09T13:53:02.388Z,26.71
2024-05-09T13:55:29.037Z,24.67
2024-05-09T13:57:56.114Z,24.70
2024-05-09T14:00:37.326Z,26.68
2024-05-09T14:03:09.878Z,25.78
2024-05-09T14:05:36.864Z,27.41
2024-05-09T14:08:03.764Z,28.28
2024-05-09T14:10:31.954Z,28.62
2024-05-09T14:12:59.864Z,29.34
2024-05-09T14:15:26.608Z,28.56
2024-05-09T14:17:53.730Z,26.80
2024-05-09T14:20:30.310Z,26.42
2024-05-09T14:22:59.650Z,25.40
2024-05-09T14:25:31.796Z,26.25
2024-05-09T14:27:58.774Z,27.06
2024-05-09T14:30:34.144Z,28.62
2024-05-09T14:33:04.633Z,25.20
2024-05-09T14:35:31.474Z,24.84
2024-05-09T14:37:58.509Z,25.65
2024-05-09T14:40:36.602Z,26.36
2024-05-09T14:43:08.233Z,26.74
2024-05-09T14:45:35.096Z,25.95
2024-05-09T14:48:02.808Z,26.65
2024-05-09T14:50:35.841Z,28.56
2024-05-09T14:53:06.498Z,29.98
2024-05-09T14:55:36.179Z,29.96
2024-05-09T14:58:05.243Z,30.66
2024-05-09T15:00:35.927Z,30.19
2024-05-09T15:03:05.060Z,26.61
2024-05-09T15:05:31.779Z,26.33
2024-05-09T15:07:59.369Z,26.01
2024-05-09T15:10:33.985Z,26.74
2024-05-09T15:13:04.142Z,28.71
2024-05-09T15:15:31.076Z,28.39
2024-05-09T15:17:57.974Z,29.25
2024-05-09T15:20:32.971Z,29.97
2024-05-09T15:23:02.760Z,29.98
2024-05-09T15:25:29.635Z,30.36
2024-05-09T15:27:56.355Z,30.36
2024-05-09T15:30:30.600Z,30.74
2024-05-09T15:32:59.628Z,30.30
2024-05-09T15:35:26.409Z,28.70
2024-05-09T15:37:53.001Z,27.20
2024-05-09T15:40:31.661Z,27.08
2024-05-09T15:43:06.291Z,24.57
2024-05-09T15:45:34.723Z,25.44
2024-05-09T15:48:02.241Z,23.81
2024-05-09T15:50:36.741Z,24.73
2024-05-09T15:53:07.618Z,25.72
2024-05-09T15:55:35.268Z,27.56
2024-05-09T15:58:03.699Z,28.88
2024-05-09T16:00:38.330Z,29.11
2024-05-09T16:03:09.660Z,29.99
2024-05-09T16:05:37.091Z,29.97
2024-05-09T16:08:04.648Z,30.21
2024-05-09T16:10:33.303Z,29.68
2024-05-09T16:13:02.390Z,29.51
2024-05-09T16:15:30.316Z,28.03
2024-05-09T16:17:57.126Z,26.37
2024-05-09T16:20:34.587Z,27.54
2024-05-09T16:23:06.515Z,28.50
2024-05-09T16:25:33.124Z,28.35
2024-05-09T16:28:00.166Z,28.15
2024-05-09T16:30:31.898Z,28.32
2024-05-09T16:33:02.537Z,28.79
2024-05-09T16:35:29.522Z,28.57
2024-05-09T16:37:56.307Z,28.32
2024-05-09T16:40:30.336Z,28.68
2024-05-09T16:43:04.532Z,28.30
2024-05-09T16:45:31.549Z,28.62
2024-05-09T16:47:59.715Z,29.22
2024-05-09T16:50:32.008Z,28.92
2024-05-09T16:53:00.645Z,28.23
2024-05-09T16:55:27.369Z,27.60
2024-05-09T16:57:54.624Z,27.62
2024-05-09T17:00:34.316Z,27.56
2024-05-09T17:03:07.204Z,27.71
2024-05-09T17:05:35.420Z,27.38
2024-05-09T17:08:02.840Z,27.08
2024-05-09T17:10:33.406Z,26.35
2024-05-09T17:13:06.370Z,26.26
2024-05-09T17:15:34.373Z,26.13
2024-05-09T17:18:01.734Z,26.56
2024-05-09T17:20:33.544Z,25.41
2024-05-09T17:23:03.433Z,24.66
2024-05-09T17:25:30.053Z,24.13
2024-05-09T17:27:57.079Z,23.54
2024-05-09T17:30:32.059Z,23.70
2024-05-09T17:33:03.989Z,23.75
2024-05-09T17:35:31.705Z,23.66
2024-05-09T17:37:59.662Z,22.92
2024-05-09T17:40:33.117Z,22.77
2024-05-09T17:43:03.334Z,22.13
2024-05-09T17:45:33.416Z,21.94
2024-05-09T17:48:01.517Z,21.87
2024-05-09T17:50:35.059Z,21.51
2024-05-09T17:53:04.034Z,21.30
2024-05-09T17:55:30.743Z,20.70
2024-05-09T17:57:57.582Z,20.46
2024-05-09T18:00:33.752Z,20.21
2024-05-09T18:03:06.420Z,20.05
2024-05-09T18:05:34.122Z,20.09
2024-05-09T18:08:00.808Z,19.79
2024-05-09T18:10:35.140Z,19.57
2024-05-09T18:13:05.839Z,19.32
2024-05-09T18:15:33.197Z,19.40
2024-05-09T18:18:00.482Z,19.39
2024-05-09T18:20:37.328Z,19.02
2024-05-09T18:23:09.933Z,18.77
2024-05-09T18:25:36.526Z,18.79
2024-05-09T18:28:03.816Z,18.71
2024-05-09T18:30:34.981Z,18.39
2024-05-09T18:33:04.924Z,18.18
2024-05-09T18:35:32.603Z,17.71
2024-05-09T18:37:59.225Z,17.65
2024-05-09T18:40:33.675Z,17.58
2024-05-09T18:43:06.123Z,17.26
2024-05-09T18:45:34.317Z,17.24
2024-05-09T18:48:01.387Z,16.90
2024-05-09T18:50:34.613Z,17.14
2024-05-09T18:53:10.414Z,16.89
2024-05-09T18:55:38.003Z,16.43
2024-05-09T18:58:05.190Z,16.48
2024-05-09T19:00:36.245Z,16.49
2024-05-09T19:03:11.722Z,16.43
2024-05-09T19:05:41.245Z,16.09
2024-05-09T19:08:08.829Z,15.75
2024-05-09T19:10:37.364Z,15.89
2024-05-09T19:13:07.161Z,15.58
2024-05-09T19:15:37.832Z,15.35
2024-05-09T19:18:05.167Z,15.14
2024-05-09T19:20:34.677Z,15.09
2024-05-09T19:23:02.701Z,15.11
2024-05-09T19:25:29.330Z,15.04
2024-05-09T19:27:55.959Z,15.09
2024-05-09T19:30:30.381Z,14.76
2024-05-09T19:33:05.966Z,14.66
2024-05-09T19:35:35.138Z,14.44
2024-05-09T19:38:02.166Z,14.49
2024-05-09T19:40:32.988Z,14.26
2024-05-09T19:43:02.691Z,14.25
2024-05-09T19:45:30.014Z,14.19
2024-05-09T19:47:57.172Z,14.07
2024-05-09T19:50:32.218Z,14.23
2024-05-09T19:53:06.848Z,13.74
2024-05-09T19:55:34.275Z,14.04
2024-05-09T19:58:07.094Z,14.10
2024-05-09T20:00:36.988Z,13.96
2024-05-09T20:03:06.092Z,13.92
2024-05-09T20:05:33.460Z,13.64
2024-05-09T20:08:00.216Z,13.73
2024-05-09T20:10:31.808Z,13.55
2024-05-09T20:13:00.729Z,13.49
2024-05-09T20:15:29.765Z,13.59
2024-05-09T20:17:56.944Z,13.58
2024-05-09T20:20:32.609Z,13.43
2024-05-09T20:23:05.134Z,13.36
2024-05-09T20:25:31.723Z,13.21
2024-05-09T20:27:58.372Z,12.97
2024-05-09T20:30:32.953Z,13.02
2024-05-09T20:33:02.462Z,13.14
2024-05-09T20:35:32.571Z,13.00
2024-05-09T20:38:02.204Z,13.01
2024-05-09T20:40:34.151Z,12.81
2024-05-09T20:43:04.312Z,12.87
2024-05-09T20:45:31.054Z,12.83
2024-05-09T20:47:57.865Z,12.68
2024-05-09T20:50:35.372Z,12.70
2024-05-09T20:53:07.177Z,12.54
2024-05-09T20:55:33.715Z,12.55
2024-05-09T20:58:00.440Z,12.52
2024-05-09T21:00:35.175Z,12.42
2024-05-09T21:03:07.355Z,12.37
2024-05-09T21:05:34.811Z,12.45
2024-05-09T21:08:01.750Z,12.55
2024-05-09T21:10:32.693Z,12.33
2024-05-09T21:13:00.545Z,12.30
2024-05-09T21:15:27.129Z,12.16
2024-05-09T21:17:53.691Z,12.24
2024-05-09T21:20:24.243Z,12.17
2024-05-09T21:22:57.429Z,12.21
2024-05-09T21:25:23.996Z,11.95
2024-05-09T21:27:53.551Z,12.06
2024-05-09T21:30:31.535Z,11.85
2024-05-09T21:33:07.508Z,11.75
2024-05-09T21:35:34.251Z,11.65
2024-05-09T21:38:00.985Z,11.58
2024-05-09T21:40:34.434Z,11.55
2024-05-09T21:43:03.211Z,11.40
2024-05-09T21:45:29.918Z,11.44
2024-05-09T21:47:56.829Z,11.45
2024-05-09T21:50:31.690Z,11.43
2024-05-09T21:53:05.410Z,11.43
2024-05-09T21:55:32.054Z,11.33
2024-05-09T21:57:58.590Z,11.25
2024-05-09T22:00:35.433Z,11.15
2024-05-09T22:03:05.202Z,11.20
2024-05-09T22:05:35.319Z,11.11
2024-05-09T22:08:02.235Z,10.96
2024-05-09T22:10:33.989Z,10.89
2024-05-09T22:13:03.461Z,10.74
2024-05-09T22:15:30.377Z,10.72
2024-05-09T22:17:57.588Z,10.90
2024-05-09T22:20:33.711Z,10.93
2024-05-09T22:23:04.440Z,11.07
2024-05-09T22:25:33.781Z,10.79
2024-05-09T22:28:04.373Z,10.62
2024-05-09T22:30:36.063Z,10.60
2024-05-09T22:33:17.102Z,10.85
2024-05-09T22:35:44.932Z,10.85
2024-05-09T22:38:11.530Z,10.68
2024-05-09T22:40:46.398Z,10.49
2024-05-09T22:43:24.292Z,10.42
2024-05-09T22:45:52.849Z,10.44
2024-05-09T22:48:19.940Z,10.35
2024-05-09T22:50:46.603Z,10.36
2024-05-09T22:53:13.137Z,10.31
2024-05-09T22:55:39.652Z,10.18
2024-05-09T22:58:06.484Z,10.14
2024-05-09T23:00:33.675Z,10.06
2024-05-09T23:03:01.513Z,9.96
2024-05-09T23:05:28.699Z,10.04
2024-05-09T23:07:55.696Z,9.89
2024-05-09T23:10:30.820Z,9.84
2024-05-09T23:13:05.823Z,9.71
2024-05-09T23:15:32.670Z,9.83
2024-05-09T23:17:59.426Z,10.13
2024-05-09T23:20:33.517Z,10.23
2024-05-09T23:23:05.156Z,10.28
2024-05-09T23:25:31.864Z,10.09
2024-05-09T23:27:58.713Z,9.94
2024-05-09T23:30:33.986Z,9.76
2024-05-09T23:33:05.790Z,9.71
2024-05-09T23:35:32.486Z,9.66
2024-05-09T23:37:59.143Z,9.68
2024-05-09T23:40:36.820Z,9.59
2024-05-09T23:43:06.717Z,9.67
2024-05-09T23:45:33.650Z,9.56
2024-05-09T23:48:00.505Z,9.46
2024-05-09T23:50:34.258Z,9.38
2024-05-09T23:53:04.615Z,9.22
2024-05-09T23:55:32.101Z,9.33
2024-05-09T23:57:59.209Z,9.33
